Terminal Aerodrome Forecast
Issued by NWS

Current Version | Previous Version | Text Only | Print | Product List | Glossary On
Versions: 1 2 3 4 5 6 7 8 9 10 11 12
000
FTUS46 KMTR 282300
TAFOAK
TAF
KOAK 282320Z 2900/3006 26006KT P6SM FEW030 FEW200
     FM290400 VRB03KT P6SM FEW250
     FM292100 28008KT P6SM SKC=

USA.gov is the U.S. government's official web portal to all federal, state and local government web resources and services.